Arad, Romania
Current Conditions -  °F | °C
As of 5:00 AM on Tuesday 23 Dec 2014 (Local Time) from LRAR Reporting Station
Clear Clear  
Wind Chill: 34°   Ceiling: Unl
Heat Index: 41°   Visibility: 6mi
Dew Point: 37°   Wind: 12mph
Humidity: 87%   Direction: 210°SSW
Pressure: 30.12"   Gusts: NA
Location:  46.19°N, 21.32°E
Report Text: LRAR 230200Z AUTO 21010KT 190V250 9999 R09////// R27/P2000NCD 05/03 Q1020
Loading
Personal Weather Stations






























Interactive Weather Map New forecast layout! Learn more

10-Day Weather Forecast

Advertisements
Track Severe Weather on mobile